Time;durP1;ratioP1;P1;durP2;ratioP2;P2;SDS_P1;SDS_P2;PMS_P1;PMS_P2;Temp;Humidity;BMP_temperature;BMP_pressure;BME280_temperature;BME280_humidity;BME280_pressure;Samples;Min_cycle;Max_cycle;Signal;HPM_P1;HPM_P2
2023/08/31 00:02:14;;;;;;;3.77;2.40;;;15.80;98.00;;;;;;5072181;28;20449;-67
2023/08/31 00:04:41;;;;;;;2.93;1.87;;;15.80;98.00;;;;;;5071896;28;20946;-68
2023/08/31 00:07:08;;;;;;;3.90;2.40;;;15.80;98.00;;;;;;5072091;28;20472;-67
2023/08/31 00:09:35;;;;;;;3.60;2.27;;;15.70;98.00;;;;;;5071919;28;20456;-67
2023/08/31 00:12:04;;;;;;;3.33;2.27;;;15.60;98.00;;;;;;5071619;28;20448;-67
2023/08/31 00:14:32;;;;;;;3.30;2.50;;;15.50;98.00;;;;;;5071802;28;20513;-67
2023/08/31 00:16:59;;;;;;;4.70;2.40;;;15.50;98.00;;;;;;5071853;28;20550;-67
2023/08/31 00:19:26;;;;;;;2.20;1.73;;;15.70;98.00;;;;;;5071781;28;20530;-67
2023/08/31 00:21:53;;;;;;;5.00;2.13;;;15.60;98.00;;;;;;5071884;28;20460;-67
2023/08/31 00:24:21;;;;;;;3.00;2.00;;;15.70;98.00;;;;;;5071718;28;20485;-67
2023/08/31 00:26:51;;;;;;;4.10;2.30;;;15.50;98.00;;;;;;5071687;28;20455;-68
2023/08/31 00:29:19;;;;;;;3.00;2.10;;;15.50;98.00;;;;;;5071998;28;20493;-67
2023/08/31 00:31:48;;;;;;;2.83;2.13;;;15.40;98.00;;;;;;5071645;28;20543;-67
2023/08/31 00:34:17;;;;;;;3.80;2.30;;;15.40;98.00;;;;;;5071851;28;20457;-67
2023/08/31 00:36:44;;;;;;;3.10;2.50;;;15.40;98.00;;;;;;5071732;28;20445;-67
2023/08/31 00:39:11;;;;;;;7.60;2.50;;;15.40;98.00;;;;;;5072091;28;20487;-67
2023/08/31 00:41:39;;;;;;;4.40;2.47;;;15.30;98.00;;;;;;5071705;28;20452;-67
2023/08/31 00:44:07;;;;;;;2.50;2.00;;;15.40;98.00;;;;;;5071912;28;20492;-67
2023/08/31 00:46:36;;;;;;;4.13;2.03;;;15.30;98.00;;;;;;5071802;28;20539;-67
2023/08/31 00:49:04;;;;;;;8.20;2.53;;;15.30;98.00;;;;;;5071992;28;20461;-67
2023/08/31 00:51:32;;;;;;;3.50;2.10;;;15.30;98.00;;;;;;5071894;28;20452;-68
2023/08/31 00:54:00;;;;;;;3.07;2.33;;;15.40;98.00;;;;;;5075660;28;20894;-68
2023/08/31 00:56:27;;;;;;;6.23;2.30;;;15.30;98.00;;;;;;5075563;28;20551;-67
2023/08/31 00:58:55;;;;;;;5.70;2.37;;;15.20;98.00;;;;;;5075092;28;20472;-68
2023/08/31 01:01:35;;;;;;;2.77;2.00;;;15.30;98.00;;;;;;5075469;28;20492;-67
2023/08/31 01:04:17;;;;;;;6.13;2.43;;;15.30;98.00;;;;;;5075185;28;20492;-67
2023/08/31 01:06:54;;;;;;;4.40;2.43;;;15.40;98.00;;;;;;5075571;28;20864;-66
2023/08/31 01:09:40;;;;;;;2.23;1.97;;;15.30;98.00;;;;;;5075017;28;20458;-67
2023/08/31 01:12:12;;;;;;;3.10;2.27;;;15.30;98.00;;;;;;5074757;28;20452;-68
2023/08/31 01:14:46;;;;;;;3.27;2.40;;;15.30;98.00;;;;;;5074988;28;20448;-68
2023/08/31 01:17:15;;;;;;;9.10;2.87;;;15.30;98.00;;;;;;5074877;28;20954;-67
2023/08/31 01:19:49;;;;;;;2.17;1.90;;;15.30;98.00;;;;;;5074644;28;20455;-66
2023/08/31 01:22:25;;;;;;;2.77;2.10;;;15.20;98.00;;;;;;5074486;28;20999;-67
2023/08/31 01:24:54;;;;;;;3.23;2.30;;;15.30;98.00;;;;;;5074086;28;21007;-67
2023/08/31 01:27:22;;;;;;;4.53;2.47;;;15.20;98.00;;;;;;5074780;28;21157;-66
2023/08/31 01:29:49;;;;;;;3.63;2.50;;;15.20;98.00;;;;;;5075010;28;20455;-67
2023/08/31 01:32:16;;;;;;;5.30;2.50;;;15.10;98.00;;;;;;5074887;28;20456;-67
2023/08/31 01:34:44;;;;;;;3.07;2.30;;;14.90;98.00;;;;;;5074851;28;20452;-67
2023/08/31 01:37:17;;;;;;;3.93;2.33;;;14.90;98.00;;;;;;5074852;28;20938;-67
2023/08/31 01:39:50;;;;;;;6.83;2.50;;;14.90;98.00;;;;;;5074680;28;20463;-66
2023/08/31 01:42:19;;;;;;;4.60;2.90;;;14.60;98.00;;;;;;5054669;28;20821;-67
2023/08/31 01:44:49;;;;;;;3.67;2.30;;;14.50;98.00;;;;;;5054555;28;20489;-67
2023/08/31 01:47:19;;;;;;;4.23;2.50;;;14.40;98.00;;;;;;5054874;28;20548;-66
2023/08/31 01:49:46;;;;;;;3.50;2.43;;;14.40;98.00;;;;;;5054675;28;20541;-67
2023/08/31 01:52:13;;;;;;;3.07;2.50;;;14.40;98.00;;;;;;5054469;28;20456;-67
2023/08/31 01:54:40;;;;;;;4.10;2.30;;;14.50;98.00;;;;;;5054255;28;20850;-67
2023/08/31 01:57:07;;;;;;;4.47;2.40;;;14.50;98.00;;;;;;5054396;28;20522;-68
2023/08/31 01:59:36;;;;;;;3.97;2.43;;;14.50;98.00;;;;;;5054170;28;20454;-68
2023/08/31 02:02:05;;;;;;;3.97;2.30;;;14.60;98.00;;;;;;5054369;28;20468;-67
2023/08/31 02:04:32;;;;;;;2.93;2.10;;;14.60;98.00;;;;;;5052983;28;20481;-67
2023/08/31 02:06:59;;;;;;;3.67;2.50;;;14.50;98.00;;;;;;5054187;28;20452;-68
2023/08/31 02:09:26;;;;;;;2.93;2.20;;;14.50;98.00;;;;;;5054040;28;20538;-66
2023/08/31 02:11:53;;;;;;;3.30;2.50;;;14.70;98.00;;;;;;5053946;28;20454;-66
2023/08/31 02:14:20;;;;;;;3.83;2.40;;;14.80;98.00;;;;;;5054014;28;20452;-66
2023/08/31 02:16:49;;;;;;;3.73;2.30;;;14.80;98.00;;;;;;5053827;28;20460;-67
2023/08/31 02:19:16;;;;;;;3.60;2.50;;;14.80;98.00;;;;;;5054044;28;20462;-67
2023/08/31 02:21:43;;;;;;;11.43;2.50;;;14.70;98.00;;;;;;5053799;28;20484;-67
2023/08/31 02:24:10;;;;;;;3.30;2.20;;;14.70;98.00;;;;;;5053814;28;20607;-67
2023/08/31 02:26:38;;;;;;;5.67;2.83;;;14.70;98.00;;;;;;5053927;28;20467;-67
2023/08/31 02:29:05;;;;;;;3.90;2.47;;;14.60;98.00;;;;;;5053503;28;20458;-67
2023/08/31 02:31:32;;;;;;;5.13;2.70;;;14.70;98.00;;;;;;5052641;28;20476;-67
2023/08/31 02:34:01;;;;;;;3.27;2.30;;;14.70;98.00;;;;;;5035980;28;20463;-67
2023/08/31 02:36:29;;;;;;;4.70;2.90;;;14.70;98.00;;;;;;5053729;28;20461;-67
2023/08/31 02:38:57;;;;;;;3.27;2.20;;;14.70;98.00;;;;;;5053532;28;20820;-69
2023/08/31 02:41:24;;;;;;;3.70;2.33;;;14.70;98.00;;;;;;5053853;28;20464;-67
2023/08/31 02:43:52;;;;;;;3.57;2.40;;;14.70;98.00;;;;;;5053563;28;21087;-67
2023/08/31 02:46:19;;;;;;;6.33;2.47;;;14.70;98.00;;;;;;5053514;28;20610;-67
2023/08/31 02:48:46;;;;;;;4.07;2.70;;;14.70;98.00;;;;;;5053236;28;20457;-67
2023/08/31 02:51:15;;;;;;;3.50;2.20;;;14.60;98.00;;;;;;5053310;28;20836;-67
2023/08/31 02:53:42;;;;;;;6.90;2.53;;;14.60;98.00;;;;;;5053231;28;20473;-67
2023/08/31 02:56:09;;;;;;;3.17;2.47;;;14.70;98.00;;;;;;5052858;28;20462;-67
2023/08/31 02:58:36;;;;;;;2.70;2.30;;;14.60;98.00;;;;;;5053077;28;20465;-66
2023/08/31 03:01:11;;;;;;;4.83;2.80;;;14.70;98.00;;;;;;5053125;28;20449;-67
2023/08/31 03:03:38;;;;;;;5.90;2.77;;;14.80;98.00;;;;;;5052969;28;20853;-66
2023/08/31 03:06:07;;;;;;;2.97;2.10;;;14.80;98.00;;;;;;5052886;28;20531;-68
2023/08/31 03:08:35;;;;;;;2.73;2.27;;;14.90;98.00;;;;;;5053041;28;20465;-67
2023/08/31 03:11:03;;;;;;;3.87;2.50;;;15.00;98.00;;;;;;5052946;28;20457;-67
2023/08/31 03:13:30;;;;;;;4.60;2.40;;;15.00;98.00;;;;;;5052953;28;20453;-67
2023/08/31 03:15:57;;;;;;;6.03;2.20;;;15.00;98.00;;;;;;5052796;28;20451;-67
2023/08/31 03:18:24;;;;;;;3.60;2.40;;;15.00;98.00;;;;;;5051411;28;20456;-67
2023/08/31 03:20:52;;;;;;;3.43;2.60;;;14.90;98.00;;;;;;5052846;28;20457;-66
2023/08/31 03:23:19;;;;;;;3.97;2.50;;;14.90;98.00;;;;;;5052645;28;20530;-68
2023/08/31 03:25:47;;;;;;;3.20;2.27;;;14.80;98.00;;;;;;5052962;28;21116;-67
2023/08/31 03:28:14;;;;;;;4.50;2.40;;;14.80;98.00;;;;;;5052407;28;20938;-67
2023/08/31 03:30:42;;;;;;;3.40;2.60;;;14.60;98.00;;;;;;5052002;28;20449;-66
2023/08/31 03:33:09;;;;;;;3.50;2.30;;;14.60;98.00;;;;;;5052237;28;20462;-68
2023/08/31 03:35:36;;;;;;;3.60;2.40;;;14.50;98.00;;;;;;5053012;28;20948;-67
2023/08/31 03:38:04;;;;;;;3.10;2.23;;;14.60;98.00;;;;;;5052523;28;20457;-67
2023/08/31 03:40:32;;;;;;;2.80;2.10;;;14.60;98.00;;;;;;5052377;28;20508;-66
2023/08/31 03:43:00;;;;;;;4.40;2.40;;;14.50;98.00;;;;;;5052228;28;20457;-67
2023/08/31 03:45:27;;;;;;;5.13;2.33;;;14.50;98.00;;;;;;5052288;28;20496;-67
2023/08/31 03:47:54;;;;;;;2.77;2.17;;;14.60;98.00;;;;;;5052480;28;20797;-67
2023/08/31 03:50:21;;;;;;;4.17;2.50;;;14.60;98.00;;;;;;5052165;28;20465;-67
2023/08/31 03:52:48;;;;;;;3.53;2.30;;;14.70;98.00;;;;;;5052202;28;20461;-67
2023/08/31 03:55:17;;;;;;;4.03;2.50;;;14.70;98.00;;;;;;5051988;28;20456;-67
2023/08/31 03:57:44;;;;;;;4.00;2.53;;;14.70;98.00;;;;;;5051905;28;20492;-66
2023/08/31 04:00:14;;;;;;;3.83;2.53;;;14.70;98.00;;;;;;5051935;28;20449;-67
2023/08/31 04:02:43;;;;;;;4.00;2.70;;;14.60;98.00;;;;;;5052117;28;20864;-66
2023/08/31 04:05:10;;;;;;;3.87;2.37;;;14.60;98.00;;;;;;5052023;28;20489;-67
2023/08/31 04:07:37;;;;;;;4.33;2.47;;;14.60;98.00;;;;;;5051983;28;20485;-68
2023/08/31 04:10:05;;;;;;;3.73;2.23;;;14.60;98.00;;;;;;5052021;28;20452;-67
2023/08/31 04:12:33;;;;;;;4.00;2.50;;;14.60;98.00;;;;;;5051888;28;20454;-67
2023/08/31 04:15:00;;;;;;;5.17;2.80;;;14.50;98.00;;;;;;5052110;28;20468;-67
2023/08/31 04:17:28;;;;;;;3.67;2.53;;;14.50;98.00;;;;;;5051901;28;20452;-68
2023/08/31 04:19:55;;;;;;;4.10;2.80;;;14.50;98.00;;;;;;5052213;28;20787;-66
2023/08/31 04:22:22;;;;;;;3.60;2.30;;;14.50;98.00;;;;;;5051832;28;20461;-66
2023/08/31 04:24:50;;;;;;;5.00;2.50;;;14.60;98.00;;;;;;5051994;28;20547;-66
2023/08/31 04:27:17;;;;;;;3.20;2.33;;;14.60;98.00;;;;;;5055316;28;20454;-66
2023/08/31 04:29:45;;;;;;;7.93;2.73;;;14.60;98.00;;;;;;5058659;28;20459;-67
2023/08/31 04:32:12;;;;;;;4.27;2.73;;;14.80;98.00;;;;;;5058545;28;20452;-67
2023/08/31 04:34:41;;;;;;;5.37;2.40;;;14.70;98.00;;;;;;5057982;28;20532;-67
2023/08/31 04:37:08;;;;;;;4.70;2.57;;;14.70;98.00;;;;;;5057891;28;20464;-67
2023/08/31 04:39:36;;;;;;;4.90;2.40;;;14.60;98.00;;;;;;5057571;28;20460;-68
2023/08/31 04:42:04;;;;;;;4.97;2.50;;;14.60;98.00;;;;;;5057649;28;20464;-67
2023/08/31 04:44:31;;;;;;;3.33;2.40;;;14.70;98.00;;;;;;5057559;28;20484;-67
2023/08/31 04:46:58;;;;;;;4.13;2.83;;;14.60;98.00;;;;;;5057841;28;20958;-67
2023/08/31 04:49:26;;;;;;;4.20;2.77;;;14.50;98.00;;;;;;5058299;28;20454;-68
2023/08/31 04:51:54;;;;;;;4.07;2.70;;;14.30;98.00;;;;;;5058131;28;20536;-67
2023/08/31 04:54:21;;;;;;;4.60;2.50;;;14.20;98.00;;;;;;5057835;28;20453;-68
2023/08/31 04:56:48;;;;;;;3.77;2.30;;;14.10;98.00;;;;;;5058106;28;20464;-67
2023/08/31 04:59:15;;;;;;;4.03;2.50;;;14.10;98.00;;;;;;5058147;28;20947;-67
2023/08/31 05:01:42;;;;;;;3.17;2.20;;;14.20;98.00;;;;;;5058136;28;20454;-68
2023/08/31 05:04:09;;;;;;;3.37;2.43;;;14.10;98.00;;;;;;5058139;28;20488;-67
2023/08/31 05:06:36;;;;;;;3.80;2.20;;;14.10;98.00;;;;;;5058245;28;20518;-67
2023/08/31 05:09:06;;;;;;;3.67;2.93;;;14.20;98.00;;;;;;5058233;28;20482;-67
2023/08/31 05:11:33;;;;;;;3.73;2.60;;;14.10;98.00;;;;;;5058029;28;20456;-68
2023/08/31 05:14:01;;;;;;;3.70;2.47;;;14.10;98.00;;;;;;5058423;28;20460;-68
2023/08/31 05:16:28;;;;;;;2.90;2.10;;;14.20;98.00;;;;;;5058194;28;20521;-67
2023/08/31 05:18:55;;;;;;;3.73;2.63;;;14.20;98.00;;;;;;5058262;28;20449;-66
2023/08/31 05:21:22;;;;;;;6.67;2.80;;;14.30;98.00;;;;;;5058109;28;20459;-67
2023/08/31 05:23:49;;;;;;;4.17;2.77;;;14.30;98.00;;;;;;5057474;28;20533;-67
2023/08/31 05:26:18;;;;;;;4.80;2.73;;;14.30;98.00;;;;;;5058144;28;20461;-68
2023/08/31 05:28:45;;;;;;;4.43;2.60;;;14.30;98.00;;;;;;5058154;28;20530;-67
2023/08/31 05:31:12;;;;;;;4.07;2.63;;;14.50;98.00;;;;;;5057569;28;20455;-67
2023/08/31 05:33:39;;;;;;;5.63;3.03;;;14.60;98.00;;;;;;5057851;28;20453;-67
2023/08/31 05:36:06;;;;;;;3.80;2.50;;;14.70;98.00;;;;;;5057546;28;21003;-67
2023/08/31 05:38:34;;;;;;;4.80;2.80;;;14.80;98.00;;;;;;5054717;28;20534;-67
2023/08/31 05:41:07;;;;;;;7.50;3.13;;;15.10;98.00;;;;;;5054208;28;20453;-67
2023/08/31 05:43:39;;;;;;;6.50;2.60;;;15.10;98.00;;;;;;5054862;28;20453;-67
2023/08/31 05:46:07;;;;;;;9.27;3.00;;;15.10;98.00;;;;;;5053291;28;20485;-66
2023/08/31 05:48:34;;;;;;;3.73;2.60;;;15.20;98.00;;;;;;5054183;28;21009;-66
2023/08/31 05:51:01;;;;;;;5.00;2.40;;;15.10;98.00;;;;;;5054587;28;20459;-67
2023/08/31 05:53:28;;;;;;;3.10;2.20;;;15.10;98.00;;;;;;5054275;28;20461;-67
2023/08/31 05:56:03;;;;;;;3.20;2.40;;;15.00;98.00;;;;;;5054478;28;20468;-66
2023/08/31 05:58:30;;;;;;;3.70;2.30;;;15.20;98.00;;;;;;5054241;28;20463;-66
2023/08/31 06:00:58;;;;;;;4.50;2.53;;;15.10;98.00;;;;;;5054225;28;20461;-66
2023/08/31 06:03:25;;;;;;;5.40;2.87;;;15.20;98.00;;;;;;5054169;28;20461;-66
2023/08/31 06:05:52;;;;;;;3.73;2.40;;;15.20;98.00;;;;;;5054167;28;20489;-66
2023/08/31 06:08:19;;;;;;;5.27;2.63;;;15.20;98.00;;;;;;5054215;28;20458;-66
2023/08/31 06:10:46;;;;;;;4.50;3.00;;;15.30;98.00;;;;;;5054065;28;21092;-66
2023/08/31 06:13:13;;;;;;;4.30;2.47;;;15.30;98.00;;;;;;5054291;28;20464;-66
2023/08/31 06:15:41;;;;;;;6.47;2.77;;;15.40;98.00;;;;;;5054153;28;20457;-66
2023/08/31 06:18:09;;;;;;;2.57;2.40;;;15.50;98.00;;;;;;5054360;28;20527;-66
2023/08/31 06:20:36;;;;;;;7.63;2.50;;;15.60;98.00;;;;;;5054101;28;20507;-66
2023/08/31 06:23:04;;;;;;;3.67;2.77;;;15.60;98.00;;;;;;5054417;28;20456;-66
2023/08/31 06:25:31;;;;;;;8.80;3.00;;;15.70;98.00;;;;;;5053660;28;20489;-66
2023/08/31 06:27:58;;;;;;;3.33;2.60;;;15.70;98.00;;;;;;5053802;28;20454;-66
2023/08/31 06:30:25;;;;;;;12.10;3.03;;;15.60;98.00;;;;;;5053353;28;20544;-66
2023/08/31 06:32:52;;;;;;;4.47;2.70;;;15.60;98.00;;;;;;5053689;28;20453;-66
2023/08/31 06:35:21;;;;;;;10.30;3.10;;;15.60;98.00;;;;;;5053608;28;20872;-66
2023/08/31 06:37:50;;;;;;;6.10;3.10;;;15.60;98.00;;;;;;5052439;28;20475;-66
2023/08/31 06:40:18;;;;;;;6.33;3.33;;;15.70;98.00;;;;;;5053594;28;20450;-66
2023/08/31 06:42:44;;;;;;;5.03;3.10;;;15.80;98.00;;;;;;5053241;28;20504;-66
2023/08/31 06:45:12;;;;;;;5.23;2.77;;;15.80;98.00;;;;;;5053472;28;20481;-66
2023/08/31 06:47:39;;;;;;;3.77;3.00;;;15.80;98.00;;;;;;5052473;28;20993;-66
2023/08/31 06:50:07;;;;;;;3.80;2.47;;;16.00;98.00;;;;;;5053089;28;20449;-66
2023/08/31 06:52:36;;;;;;;4.13;2.60;;;16.00;98.00;;;;;;5053191;28;20488;-66
2023/08/31 06:55:06;;;;;;;5.20;2.90;;;16.10;98.00;;;;;;5035392;28;20547;-66
2023/08/31 06:57:33;;;;;;;5.73;2.77;;;16.30;98.00;;;;;;5053020;28;20464;-67
2023/08/31 07:00:00;;;;;;;5.50;2.70;;;16.40;98.00;;;;;;5052029;28;20457;-66
2023/08/31 07:02:27;;;;;;;4.20;2.90;;;16.50;98.00;;;;;;5053023;28;20940;-66
2023/08/31 07:04:54;;;;;;;4.20;2.70;;;16.40;98.00;;;;;;5053149;28;20486;-66
2023/08/31 07:07:21;;;;;;;4.27;2.50;;;16.40;98.00;;;;;;5053055;28;20446;-66
2023/08/31 07:09:50;;;;;;;5.40;2.60;;;16.30;98.00;;;;;;5052104;28;20480;-66
2023/08/31 07:12:17;;;;;;;4.40;2.63;;;16.20;98.00;;;;;;5052571;28;20967;-66
2023/08/31 07:14:44;;;;;;;3.60;2.43;;;16.20;98.00;;;;;;5052757;28;20515;-67
2023/08/31 07:17:12;;;;;;;3.10;2.40;;;16.30;98.00;;;;;;5052604;28;20464;-66
2023/08/31 07:19:39;;;;;;;6.70;2.87;;;16.30;98.00;;;;;;5052663;28;20462;-66
2023/08/31 07:22:07;;;;;;;4.57;2.50;;;16.20;98.00;;;;;;5052556;28;20837;-66
2023/08/31 07:24:34;;;;;;;5.17;2.93;;;16.10;98.00;;;;;;5052482;28;20532;-66
2023/08/31 07:27:04;;;;;;;4.23;2.57;;;16.00;98.00;;;;;;5052348;28;20846;-66
2023/08/31 07:29:36;;;;;;;8.23;2.63;;;16.00;98.00;;;;;;5052527;28;20461;-66
2023/08/31 07:32:04;;;;;;;3.93;2.60;;;16.00;98.00;;;;;;5051704;28;20535;-66
2023/08/31 07:34:31;;;;;;;3.37;2.37;;;16.00;98.00;;;;;;5052360;28;20528;-66
2023/08/31 07:36:58;;;;;;;3.80;2.20;;;16.10;98.00;;;;;;5051018;28;20544;-67
2023/08/31 07:39:26;;;;;;;7.30;3.00;;;16.30;98.00;;;;;;5052264;28;20454;-67
2023/08/31 07:41:55;;;;;;;3.67;2.60;;;16.50;98.00;;;;;;5052444;28;20453;-66
2023/08/31 07:44:24;;;;;;;3.40;2.43;;;16.60;98.00;;;;;;5052138;28;20450;-67
2023/08/31 07:46:52;;;;;;;4.53;2.87;;;16.70;98.00;;;;;;5051723;28;20847;-66
2023/08/31 07:49:19;;;;;;;3.47;2.63;;;16.80;98.00;;;;;;5051666;28;20453;-66
2023/08/31 07:51:48;;;;;;;3.73;2.57;;;16.90;98.00;;;;;;5052363;28;20456;-66
2023/08/31 07:54:20;;;;;;;4.97;3.07;;;16.80;98.00;;;;;;5052325;28;20457;-66
2023/08/31 07:56:48;;;;;;;4.20;2.50;;;16.90;98.00;;;;;;5052137;28;20544;-66
2023/08/31 07:59:15;;;;;;;4.47;2.70;;;16.80;98.00;;;;;;5052172;28;20453;-66
2023/08/31 08:01:44;;;;;;;3.80;2.60;;;16.80;98.00;;;;;;5051468;28;20453;-66
2023/08/31 08:04:12;;;;;;;3.17;2.30;;;17.00;98.00;;;;;;5051981;28;20508;-66
2023/08/31 08:06:39;;;;;;;6.30;2.33;;;17.00;98.00;;;;;;5050415;28;21008;-66
2023/08/31 08:09:06;;;;;;;3.43;2.40;;;17.00;98.00;;;;;;5052134;28;20862;-66
2023/08/31 08:11:35;;;;;;;3.37;2.43;;;17.00;98.00;;;;;;5051840;28;20463;-66
2023/08/31 08:14:04;;;;;;;3.70;2.30;;;17.00;98.00;;;;;;5052084;28;20959;-66
2023/08/31 08:16:31;;;;;;;4.50;2.70;;;17.10;98.00;;;;;;5050031;28;20503;-66
2023/08/31 08:19:00;;;;;;;3.20;2.60;;;17.00;98.00;;;;;;5051846;28;20442;-66
2023/08/31 08:21:27;;;;;;;6.63;2.63;;;16.80;98.00;;;;;;5049713;28;20522;-66
2023/08/31 08:23:54;;;;;;;3.50;2.60;;;16.90;98.00;;;;;;5051787;28;20532;-66
2023/08/31 08:26:21;;;;;;;8.10;2.70;;;16.90;98.00;;;;;;5051492;28;20523;-66
2023/08/31 08:28:48;;;;;;;4.33;2.23;;;17.00;98.00;;;;;;5051439;28;20507;-66
2023/08/31 08:31:15;;;;;;;3.80;2.30;;;17.00;98.00;;;;;;5051781;28;20951;-66
2023/08/31 08:33:43;;;;;;;5.90;2.40;;;17.20;98.00;;;;;;5050221;28;20457;-66
2023/08/31 08:36:12;;;;;;;6.67;2.90;;;17.30;98.00;;;;;;5051747;28;20867;-66
2023/08/31 08:38:39;;;;;;;3.30;2.30;;;17.40;98.00;;;;;;5050725;28;20536;-66
2023/08/31 08:41:07;;;;;;;7.97;2.70;;;17.60;98.00;;;;;;5050470;28;20483;-66
2023/08/31 08:43:35;;;;;;;4.90;2.53;;;17.60;98.00;;;;;;5051494;28;20445;-66
2023/08/31 08:46:07;;;;;;;4.10;2.53;;;17.80;98.00;;;;;;5051564;28;20905;-66
2023/08/31 08:48:35;;;;;;;4.33;2.60;;;18.00;98.00;;;;;;5051443;28;20461;-66
2023/08/31 08:51:04;;;;;;;3.23;2.50;;;18.20;98.00;;;;;;5050278;28;20896;-66
2023/08/31 08:53:33;;;;;;;4.60;2.87;;;18.40;98.00;;;;;;5051343;28;21025;-66
2023/08/31 08:56:00;;;;;;;3.80;2.60;;;18.60;98.00;;;;;;5051203;28;20986;-66
2023/08/31 08:58:27;;;;;;;3.87;2.20;;;18.70;98.00;;;;;;5051379;28;20782;-67
2023/08/31 09:00:57;;;;;;;7.43;2.40;;;18.60;98.00;;;;;;5051303;28;20454;-66
2023/08/31 09:03:24;;;;;;;3.40;2.23;;;18.60;98.00;;;;;;5051443;28;20485;-66
2023/08/31 09:05:52;;;;;;;2.67;2.20;;;18.40;98.00;;;;;;5051383;28;20558;-66
2023/08/31 09:08:25;;;;;;;4.10;2.60;;;18.30;98.00;;;;;;5051359;28;20484;-66
2023/08/31 09:10:57;;;;;;;2.87;2.23;;;18.20;98.00;;;;;;5051236;28;20458;-67
2023/08/31 09:13:27;;;;;;;5.97;2.87;;;18.20;98.00;;;;;;5052887;28;20529;-66
2023/08/31 09:15:55;;;;;;;4.17;2.50;;;18.10;98.00;;;;;;5054907;28;20544;-66
2023/08/31 09:18:25;;;;;;;4.43;2.70;;;18.10;98.00;;;;;;5054906;28;20458;-66
2023/08/31 09:20:53;;;;;;;4.80;2.50;;;18.10;98.00;;;;;;5054684;28;20853;-66
2023/08/31 09:23:20;;;;;;;5.70;2.53;;;18.20;98.00;;;;;;5053495;28;20453;-66
2023/08/31 09:25:50;;;;;;;3.43;2.30;;;18.20;98.00;;;;;;5054692;28;20527;-66
2023/08/31 09:28:21;;;;;;;4.30;2.33;;;18.20;98.00;;;;;;5054627;28;20966;-66
2023/08/31 09:30:49;;;;;;;3.27;2.20;;;18.30;98.00;;;;;;5054652;28;20453;-66
2023/08/31 09:33:18;;;;;;;3.47;2.20;;;18.40;98.00;;;;;;5053567;28;20446;-64
2023/08/31 09:35:53;;;;;;;3.03;2.10;;;18.30;98.00;;;;;;5054491;28;20515;-66
2023/08/31 09:38:22;;;;;;;5.67;2.63;;;18.20;98.00;;;;;;5053442;28;20461;-67
2023/08/31 09:40:49;;;;;;;3.27;2.10;;;18.30;98.00;;;;;;5054685;28;20978;-66
2023/08/31 09:43:23;;;;;;;2.87;2.20;;;18.40;98.00;;;;;;5054602;28;20449;-66
2023/08/31 09:45:51;;;;;;;4.70;2.17;;;18.90;98.00;;;;;;5054083;28;20485;-66
2023/08/31 09:48:20;;;;;;;4.47;2.73;;;19.30;98.00;;;;;;5054440;28;20469;-67
2023/08/31 09:50:49;;;;;;;4.30;2.40;;;19.60;98.00;;;;;;5054086;28;20454;-66
2023/08/31 09:53:21;;;;;;;2.80;2.00;;;19.90;98.00;;;;;;5054511;28;20445;-66
2023/08/31 09:55:49;;;;;;;3.07;2.20;;;20.10;98.00;;;;;;5052725;28;21009;-66
2023/08/31 09:58:19;;;;;;;4.27;2.37;;;19.90;98.00;;;;;;5053848;28;21000;-67
2023/08/31 10:00:50;;;;;;;4.07;2.30;;;19.70;98.00;;;;;;5054674;28;20478;-66
2023/08/31 10:03:17;;;;;;;8.10;2.70;;;19.50;98.00;;;;;;5054437;28;20461;-66
2023/08/31 10:05:45;;;;;;;3.63;2.47;;;19.50;98.00;;;;;;5053915;28;20485;-66
2023/08/31 10:08:13;;;;;;;3.07;2.20;;;19.30;98.00;;;;;;5053988;28;20450;-66
2023/08/31 10:10:41;;;;;;;3.93;2.50;;;19.20;98.00;;;;;;5053914;28;20457;-66
2023/08/31 10:13:09;;;;;;;3.27;2.37;;;19.20;98.00;;;;;;5052440;28;20511;-66
2023/08/31 10:15:39;;;;;;;4.70;2.33;;;19.30;98.00;;;;;;5054149;28;20457;-66
2023/08/31 10:18:08;;;;;;;4.20;2.50;;;19.40;98.00;;;;;;5053620;28;20800;-66
2023/08/31 10:20:35;;;;;;;3.27;2.50;;;19.30;98.00;;;;;;5053783;28;21113;-66
2023/08/31 10:23:04;;;;;;;3.67;2.00;;;19.30;98.00;;;;;;5053713;28;20454;-66
2023/08/31 10:26:03;;;;;;;7.87;2.80;;;19.30;98.00;;;;;;5053012;28;20453;-66
2023/08/31 10:28:30;;;;;;;4.07;2.37;;;19.30;98.00;;;;;;5053492;28;20484;-66
2023/08/31 10:31:05;;;;;;;3.10;2.27;;;19.40;98.00;;;;;;5052596;28;20872;-66
2023/08/31 10:33:36;;;;;;;5.07;2.53;;;19.70;98.00;;;;;;5053443;28;20932;-66
2023/08/31 10:36:03;;;;;;;3.37;2.00;;;20.00;98.00;;;;;;5053450;28;20468;-66
2023/08/31 10:38:32;;;;;;;3.50;2.60;;;20.40;98.00;;;;;;5053487;28;20458;-66
2023/08/31 10:41:18;;;;;;;4.07;2.30;;;20.80;98.00;;;;;;5053362;28;20461;-66
2023/08/31 10:43:46;;;;;;;3.67;2.10;;;20.90;98.00;;;;;;5051989;28;20462;-66
2023/08/31 10:46:26;;;;;;;4.40;2.20;;;20.80;98.00;;;;;;5053112;28;20513;-66
2023/08/31 10:48:58;;;;;;;4.93;2.40;;;20.60;98.00;;;;;;5053457;28;20491;-66
2023/08/31 10:51:26;;;;;;;4.47;2.43;;;20.50;98.00;;;;;;5053628;28;20446;-66
2023/08/31 10:54:07;;;;;;;5.30;2.70;;;20.40;98.00;;;;;;5053235;28;20462;-66
2023/08/31 10:56:34;;;;;;;2.97;2.20;;;20.50;98.00;;;;;;5053219;28;20796;-66
2023/08/31 10:59:03;;;;;;;3.70;2.20;;;21.00;98.00;;;;;;5052849;28;20472;-66
2023/08/31 11:01:59;;;;;;;3.83;2.00;;;21.20;96.40;;;;;;5053097;28;20450;-67
2023/08/31 11:04:29;;;;;;;3.50;2.23;;;21.10;96.30;;;;;;5052908;28;20507;-66
2023/08/31 11:07:15;;;;;;;4.33;2.20;;;20.90;96.40;;;;;;5052812;28;20485;-66
2023/08/31 11:09:42;;;;;;;3.00;2.20;;;20.50;97.50;;;;;;5052854;28;20533;-66
2023/08/31 11:12:10;;;;;;;5.40;2.57;;;20.20;98.00;;;;;;5052608;28;20453;-66
2023/08/31 11:14:37;;;;;;;3.77;2.23;;;19.90;97.70;;;;;;5052611;28;20462;-66
2023/08/31 11:17:05;;;;;;;5.17;2.40;;;19.60;98.00;;;;;;5052766;28;20453;-66
2023/08/31 11:19:34;;;;;;;4.70;2.17;;;19.40;98.00;;;;;;5052511;28;20449;-66
2023/08/31 11:22:03;;;;;;;3.87;2.10;;;19.40;98.00;;;;;;5052536;28;20533;-66
2023/08/31 11:24:30;;;;;;;2.93;2.20;;;19.40;98.00;;;;;;5052495;28;20489;-67
2023/08/31 11:26:58;;;;;;;3.30;2.37;;;19.60;98.00;;;;;;5051208;28;20485;-66
2023/08/31 11:29:25;;;;;;;3.10;1.97;;;20.20;98.00;;;;;;5052481;28;20450;-66
2023/08/31 11:31:52;;;;;;;3.00;2.10;;;21.00;98.00;;;;;;5052657;28;20459;-66
2023/08/31 11:34:19;;;;;;;4.43;2.60;;;21.30;98.00;;;;;;5052629;28;20839;-68
2023/08/31 11:36:49;;;;;;;3.70;2.43;;;21.50;95.70;;;;;;5051328;28;20492;-66
2023/08/31 11:39:19;;;;;;;3.90;2.20;;;21.50;95.00;;;;;;5052761;28;20471;-66
2023/08/31 11:41:46;;;;;;;6.30;2.60;;;21.30;97.20;;;;;;5052358;28;20462;-67
2023/08/31 11:44:16;;;;;;;4.20;2.43;;;21.10;95.70;;;;;;5052519;28;20453;-66
2023/08/31 11:46:48;;;;;;;4.67;2.47;;;20.80;98.00;;;;;;5052185;28;20568;-67
2023/08/31 11:49:16;;;;;;;5.30;2.57;;;20.80;98.00;;;;;;5052395;28;20488;-66
2023/08/31 11:51:44;;;;;;;3.40;2.43;;;20.90;98.00;;;;;;5052657;28;20454;-66
2023/08/31 11:54:12;;;;;;;8.27;2.43;;;20.90;97.30;;;;;;5052186;28;21150;-66
2023/08/31 11:56:40;;;;;;;6.63;2.77;;;20.80;98.00;;;;;;5052144;28;20456;-67
2023/08/31 11:59:12;;;;;;;7.70;2.50;;;20.80;98.00;;;;;;5051857;28;20544;-66
2023/08/31 12:01:43;;;;;;;3.43;2.30;;;20.70;98.00;;;;;;5051975;28;20449;-66
2023/08/31 12:04:15;;;;;;;3.67;2.70;;;20.60;97.30;;;;;;5052040;28;20481;-66
2023/08/31 12:06:46;;;;;;;4.23;2.63;;;20.70;97.40;;;;;;5051661;28;20486;-66
2023/08/31 12:09:15;;;;;;;4.73;2.47;;;20.80;97.70;;;;;;5051335;28;20453;-66
2023/08/31 12:11:42;;;;;;;3.43;2.27;;;20.80;97.10;;;;;;5051603;28;20499;-66
2023/08/31 12:14:20;;;;;;;4.47;2.47;;;20.70;97.60;;;;;;5052023;28;20450;-66
2023/08/31 12:16:57;;;;;;;3.90;2.70;;;20.80;98.00;;;;;;5051761;28;20493;-67
2023/08/31 12:19:28;;;;;;;6.10;2.50;;;21.10;97.60;;;;;;5051916;28;20471;-66
2023/08/31 12:21:56;;;;;;;4.70;2.20;;;21.10;98.00;;;;;;5051736;28;20485;-66
2023/08/31 12:24:26;;;;;;;4.90;2.80;;;21.10;96.70;;;;;;5050555;28;20446;-66
2023/08/31 12:26:54;;;;;;;2.90;2.20;;;21.00;95.10;;;;;;5051528;28;20527;-66
2023/08/31 12:29:22;;;;;;;3.07;2.10;;;20.80;95.20;;;;;;5051727;28;20453;-67
2023/08/31 12:31:49;;;;;;;4.67;2.30;;;20.90;97.60;;;;;;5033909;28;20454;-67
2023/08/31 12:34:17;;;;;;;5.10;2.50;;;21.00;97.10;;;;;;5051689;28;20532;-66
2023/08/31 12:36:45;;;;;;;3.43;2.27;;;21.20;98.00;;;;;;5051456;28;20454;-66
2023/08/31 12:39:13;;;;;;;4.00;2.67;;;21.20;96.50;;;;;;5050502;28;20488;-66
2023/08/31 12:41:41;;;;;;;3.43;2.30;;;21.20;98.00;;;;;;5051735;28;20446;-66
2023/08/31 12:44:09;;;;;;;3.30;2.40;;;21.10;98.00;;;;;;5051146;28;20453;-66
2023/08/31 12:46:36;;;;;;;3.87;2.53;;;21.10;97.00;;;;;;5051021;28;20489;-67
2023/08/31 12:49:04;;;;;;;3.20;2.23;;;21.20;98.00;;;;;;5054444;28;20496;-66
2023/08/31 12:51:31;;;;;;;3.33;2.30;;;21.10;98.00;;;;;;5055421;28;20453;-66
2023/08/31 12:53:59;;;;;;;4.23;2.60;;;21.20;98.00;;;;;;5054349;28;20482;-67